createdAt,value
2019-05-23T00:00:39.229Z,90.28
2019-05-23T00:01:39.198Z,90.28
2019-05-23T00:02:39.212Z,90.37
2019-05-23T00:03:39.209Z,90.17
2019-05-23T00:04:39.162Z,89.97
2019-05-23T00:05:39.169Z,89.97
2019-05-23T00:06:39.189Z,89.87
2019-05-23T00:07:39.158Z,89.66
2019-05-23T00:08:39.116Z,89.66
2019-05-23T00:09:39.221Z,89.76
2019-05-23T00:10:39.111Z,89.87
2019-05-23T00:11:40.272Z,89.76
2019-05-23T00:12:39.208Z,89.87
2019-05-23T00:13:39.111Z,89.87
2019-05-23T00:14:39.056Z,90.07
2019-05-23T00:15:39.038Z,90.07
2019-05-23T00:16:39.045Z,90.17
2019-05-23T00:17:39.047Z,89.97
2019-05-23T00:18:39.029Z,89.87
2019-05-23T00:19:39.039Z,89.66
2019-05-23T00:20:39.077Z,89.56
2019-05-23T00:21:38.969Z,89.76
2019-05-23T00:22:38.983Z,89.87
2019-05-23T00:23:38.987Z,89.87
2019-05-23T00:24:38.952Z,89.45
2019-05-23T00:25:38.939Z,89.25
2019-05-23T00:26:38.918Z,89.15
2019-05-23T00:27:38.917Z,89.04
2019-05-23T00:28:39.278Z,89.15
2019-05-23T00:29:40.532Z,89.04
2019-05-23T00:30:38.869Z,89.04
2019-05-23T00:31:38.869Z,88.94
2019-05-23T00:32:38.875Z,89.04
2019-05-23T00:33:38.858Z,89.04
2019-05-23T00:34:38.882Z,88.94
2019-05-23T00:35:38.908Z,88.84
2019-05-23T00:36:38.818Z,89.04
2019-05-23T00:37:38.800Z,88.94
2019-05-23T00:38:38.878Z,88.84
2019-05-23T00:39:38.781Z,89.15
2019-05-23T00:40:38.787Z,89.15
2019-05-23T00:41:38.817Z,89.25
2019-05-23T00:42:38.818Z,89.15
2019-05-23T00:43:38.768Z,89.50
2019-05-23T00:44:38.722Z,89.50
2019-05-23T00:45:38.787Z,89.60
2019-05-23T00:46:38.748Z,89.60
2019-05-23T00:47:38.698Z,89.81
2019-05-23T00:48:38.698Z,89.60
2019-05-23T00:49:38.741Z,89.70
2019-05-23T00:50:38.689Z,89.81
2019-05-23T00:51:38.649Z,89.81
2019-05-23T00:52:38.627Z,89.81
2019-05-23T00:53:38.692Z,89.81
2019-05-23T00:54:38.617Z,89.90
2019-05-23T00:55:38.619Z,89.90
2019-05-23T00:56:38.724Z,89.90
2019-05-23T00:57:38.606Z,89.81
2019-05-23T00:58:39.426Z,89.70
2019-05-23T00:59:38.607Z,89.60
2019-05-23T01:00:38.590Z,89.50
2019-05-23T01:01:38.588Z,89.60
2019-05-23T01:02:38.518Z,89.70
2019-05-23T01:03:38.528Z,89.90
2019-05-23T01:04:38.529Z,89.70
2019-05-23T01:05:38.517Z,89.81
2019-05-23T01:06:38.480Z,90.01
2019-05-23T01:07:38.468Z,90.01
2019-05-23T01:08:38.469Z,90.01
2019-05-23T01:09:38.462Z,90.01
2019-05-23T01:10:38.570Z,90.01
2019-05-23T01:11:38.460Z,90.01
2019-05-23T01:12:38.458Z,89.70
2019-05-23T01:13:38.419Z,89.60
2019-05-23T01:14:38.397Z,89.50
2019-05-23T01:15:38.398Z,89.60
2019-05-23T01:16:38.370Z,89.39
2019-05-23T01:17:38.348Z,89.09
2019-05-23T01:18:38.352Z,88.88
2019-05-23T01:19:38.337Z,88.98
2019-05-23T01:20:38.351Z,88.88
2019-05-23T01:21:38.308Z,88.78
2019-05-23T01:22:38.328Z,88.78
2019-05-23T01:23:38.286Z,88.88
2019-05-23T01:24:38.306Z,89.09
2019-05-23T01:25:38.376Z,88.98
2019-05-23T01:26:38.271Z,89.09
2019-05-23T01:27:38.262Z,89.19
2019-05-23T01:28:38.232Z,89.39
2019-05-23T01:29:38.701Z,89.50
2019-05-23T01:30:38.241Z,89.50
2019-05-23T01:31:38.205Z,89.60
2019-05-23T01:32:38.219Z,89.50
2019-05-23T01:33:38.194Z,89.39
2019-05-23T01:34:38.175Z,89.29
2019-05-23T01:35:38.187Z,89.19
2019-05-23T01:36:38.169Z,89.43
2019-05-23T01:37:38.145Z,89.19
2019-05-23T01:38:38.136Z,89.23
2019-05-23T01:39:38.119Z,89.43
2019-05-23T01:40:38.137Z,89.43
2019-05-23T01:41:38.123Z,89.43
2019-05-23T01:42:38.094Z,89.54
2019-05-23T01:43:38.092Z,89.43
2019-05-23T01:44:38.072Z,89.54
2019-05-23T01:45:38.135Z,89.64
2019-05-23T01:46:38.061Z,89.54
2019-05-23T01:47:38.095Z,89.54
2019-05-23T01:48:38.093Z,89.64
2019-05-23T01:49:38.029Z,89.75
2019-05-23T01:50:38.047Z,89.99
2019-05-23T01:51:38.051Z,90.20
2019-05-23T01:52:37.968Z,90.16
2019-05-23T01:53:37.966Z,90.30
2019-05-23T01:54:37.968Z,90.30
2019-05-23T01:55:38.048Z,90.30
2019-05-23T01:56:37.937Z,90.50
2019-05-23T01:57:37.987Z,90.40
2019-05-23T01:58:37.968Z,90.40
2019-05-23T01:59:37.910Z,90.30
2019-05-23T02:00:37.896Z,90.09
2019-05-23T02:01:37.954Z,90.20
2019-05-23T02:02:37.886Z,90.09
2019-05-23T02:03:37.849Z,90.20
2019-05-23T02:04:37.854Z,90.30
2019-05-23T02:05:37.860Z,90.36
2019-05-23T02:06:37.827Z,90.26
2019-05-23T02:07:37.816Z,90.36
2019-05-23T02:08:37.806Z,90.36
2019-05-23T02:09:37.792Z,90.16
2019-05-23T02:10:37.786Z,90.05
2019-05-23T02:11:37.826Z,89.84
2019-05-23T02:12:37.750Z,89.43
2019-05-23T02:13:37.781Z,89.13
2019-05-23T02:14:37.742Z,89.23
2019-05-23T02:15:37.720Z,89.13
2019-05-23T02:16:37.727Z,89.03
2019-05-23T02:17:37.737Z,88.98
2019-05-23T02:18:37.685Z,88.98
2019-05-23T02:19:37.673Z,88.98
2019-05-23T02:20:37.660Z,88.92
2019-05-23T02:21:37.709Z,88.82
2019-05-23T02:22:37.695Z,88.92
2019-05-23T02:23:37.625Z,89.03
2019-05-23T02:24:37.627Z,89.13
2019-05-23T02:25:37.620Z,88.82
2019-05-23T02:26:37.607Z,88.72
2019-05-23T02:27:37.595Z,88.82
2019-05-23T02:28:37.571Z,88.82
2019-05-23T02:29:37.563Z,88.82
2019-05-23T02:30:37.617Z,88.82
2019-05-23T02:31:37.583Z,88.82
2019-05-23T02:32:37.546Z,88.82
2019-05-23T02:33:37.524Z,88.82
2019-05-23T02:34:37.512Z,88.82
2019-05-23T02:35:37.498Z,89.03
2019-05-23T02:36:37.484Z,89.13
2019-05-23T02:37:37.515Z,88.92
2019-05-23T02:38:37.465Z,88.82
2019-05-23T02:39:37.456Z,88.82
2019-05-23T02:40:37.440Z,88.82
2019-05-23T02:41:37.432Z,88.92
2019-05-23T02:42:37.443Z,89.03
2019-05-23T02:43:37.424Z,89.13
2019-05-23T02:44:37.408Z,89.13
2019-05-23T02:45:37.379Z,89.23
2019-05-23T02:46:37.423Z,89.23
2019-05-23T02:47:37.394Z,89.23
2019-05-23T02:48:37.497Z,89.23
2019-05-23T02:49:37.345Z,89.13
2019-05-23T02:50:37.347Z,89.13
2019-05-23T02:51:37.332Z,89.23
2019-05-23T02:52:37.306Z,89.23
2019-05-23T02:53:37.309Z,89.23
2019-05-23T02:54:37.572Z,89.23
2019-05-23T02:55:37.312Z,89.33
2019-05-23T02:56:37.299Z,89.33
2019-05-23T02:57:37.260Z,89.43
2019-05-23T02:58:37.243Z,89.43
2019-05-23T02:59:37.275Z,89.43
2019-05-23T03:00:52.429Z,89.33
2019-05-23T03:01:38.255Z,89.33
2019-05-23T03:02:37.196Z,89.33
2019-05-23T03:03:44.649Z,89.33
2019-05-23T03:04:40.590Z,89.33
2019-05-23T03:05:40.481Z,89.33
2019-05-23T03:06:38.113Z,89.23
2019-05-23T03:07:38.209Z,89.23
2019-05-23T03:08:38.163Z,89.03
2019-05-23T03:09:37.146Z,88.92
2019-05-23T03:10:37.110Z,88.92
2019-05-23T03:11:37.097Z,88.92
2019-05-23T03:12:37.097Z,88.92
2019-05-23T03:13:37.078Z,89.03
2019-05-23T03:14:37.080Z,89.07
2019-05-23T03:15:37.080Z,89.07
2019-05-23T03:16:37.038Z,89.17
2019-05-23T03:17:37.026Z,89.17
2019-05-23T03:18:37.046Z,89.17
2019-05-23T03:19:37.103Z,89.27
2019-05-23T03:20:37.008Z,89.37
2019-05-23T03:21:36.997Z,89.27
2019-05-23T03:22:36.976Z,89.37
2019-05-23T03:23:37.095Z,89.48
2019-05-23T03:24:36.995Z,89.58
2019-05-23T03:25:37.025Z,89.78
2019-05-23T03:26:36.956Z,89.62
2019-05-23T03:27:36.917Z,89.72
2019-05-23T03:28:36.966Z,89.83
2019-05-23T03:29:36.896Z,89.83
2019-05-23T03:30:37.317Z,89.62
2019-05-23T03:31:36.907Z,89.83
2019-05-23T03:32:39.452Z,89.93
2019-05-23T03:33:36.900Z,90.03
2019-05-23T03:34:36.886Z,90.34
2019-05-23T03:35:36.931Z,90.65
2019-05-23T03:36:36.891Z,90.55
2019-05-23T03:37:36.846Z,90.69
2019-05-23T03:38:36.845Z,90.69
2019-05-23T03:39:36.908Z,90.80
2019-05-23T03:40:36.817Z,90.85
2019-05-23T03:41:36.784Z,90.89
2019-05-23T03:42:36.796Z,90.59
2019-05-23T03:43:36.749Z,90.80
2019-05-23T03:44:36.727Z,90.89
2019-05-23T03:45:39.679Z,90.89
2019-05-23T03:46:36.788Z,91.00
2019-05-23T03:47:36.713Z,90.89
2019-05-23T03:48:36.694Z,91.00
2019-05-23T03:49:36.720Z,90.89
2019-05-23T03:50:36.782Z,90.80
2019-05-23T03:51:36.710Z,90.69
2019-05-23T03:52:36.664Z,91.31
2019-05-23T03:53:36.694Z,91.61
2019-05-23T03:54:36.628Z,91.61
2019-05-23T03:55:36.648Z,91.51
2019-05-23T03:56:36.619Z,91.51
2019-05-23T03:57:36.589Z,91.51
2019-05-23T03:58:36.614Z,91.41
2019-05-23T03:59:36.586Z,91.41
2019-05-23T04:00:36.587Z,91.61
2019-05-23T04:01:47.888Z,91.51
2019-05-23T04:02:37.595Z,91.51
2019-05-23T04:03:39.928Z,91.41
2019-05-23T04:04:36.523Z,91.41
2019-05-23T04:05:36.509Z,91.41
2019-05-23T04:06:36.520Z,91.41
2019-05-23T04:07:36.494Z,91.31
2019-05-23T04:08:36.475Z,91.31
2019-05-23T04:09:36.507Z,91.31
2019-05-23T04:10:36.473Z,91.41
2019-05-23T04:11:36.507Z,91.31
2019-05-23T04:12:36.455Z,91.20
2019-05-23T04:13:36.556Z,91.10
2019-05-23T04:14:36.395Z,91.10
2019-05-23T04:15:36.477Z,91.20
2019-05-23T04:16:36.386Z,91.27
2019-05-23T04:17:36.405Z,91.06
2019-05-23T04:18:36.375Z,90.85
2019-05-23T04:19:36.356Z,91.06
2019-05-23T04:20:36.339Z,90.95
2019-05-23T04:21:36.334Z,90.85
2019-05-23T04:22:36.312Z,90.75
2019-05-23T04:23:36.324Z,90.75
2019-05-23T04:24:36.295Z,90.75
2019-05-23T04:25:36.289Z,90.75
2019-05-23T04:26:36.269Z,90.75
2019-05-23T04:27:36.253Z,90.44
2019-05-23T04:28:36.282Z,90.44
2019-05-23T04:29:36.236Z,89.93
2019-05-23T04:30:36.223Z,89.58
2019-05-23T04:31:36.228Z,89.69
2019-05-23T04:32:36.204Z,89.89
2019-05-23T04:33:36.213Z,89.27
2019-05-23T04:34:36.186Z,88.76
2019-05-23T04:35:36.176Z,88.45
2019-05-23T04:36:36.205Z,88.21
2019-05-23T04:37:36.194Z,88.10
2019-05-23T04:38:36.754Z,88.00
2019-05-23T04:39:36.133Z,87.70
2019-05-23T04:40:36.114Z,87.70
2019-05-23T04:41:36.112Z,87.24
2019-05-23T04:42:36.093Z,87.14
2019-05-23T04:43:36.126Z,87.14
2019-05-23T04:44:36.085Z,86.93
2019-05-23T04:45:36.066Z,86.93
2019-05-23T04:46:36.070Z,86.83
2019-05-23T04:47:36.058Z,86.63
2019-05-23T04:48:36.045Z,86.32
2019-05-23T04:49:36.022Z,86.42
2019-05-23T04:50:36.015Z,86.32
2019-05-23T04:51:36.000Z,86.07
2019-05-23T04:52:35.987Z,85.97
2019-05-23T04:53:35.991Z,85.97
2019-05-23T04:54:35.962Z,86.18
2019-05-23T04:55:35.961Z,86.18
2019-05-23T04:56:35.943Z,85.87
2019-05-23T04:57:35.944Z,85.87
2019-05-23T04:58:35.933Z,85.80
2019-05-23T04:59:35.908Z,85.77
2019-05-23T05:00:35.893Z,85.87
2019-05-23T05:01:35.900Z,85.56
2019-05-23T05:02:35.873Z,85.25
2019-05-23T05:03:35.912Z,85.36
2019-05-23T05:04:35.874Z,85.56
2019-05-23T05:05:35.887Z,85.36
2019-05-23T05:06:35.823Z,85.46
2019-05-23T05:07:35.829Z,85.56
2019-05-23T05:08:35.954Z,85.36
2019-05-23T05:09:35.811Z,85.25
2019-05-23T05:10:35.786Z,85.36
2019-05-23T05:11:35.772Z,85.05
2019-05-23T05:12:35.762Z,85.22
2019-05-23T05:13:35.769Z,84.91
2019-05-23T05:14:35.772Z,84.80
2019-05-23T05:15:35.733Z,84.29
2019-05-23T05:16:35.711Z,84.09
2019-05-23T05:17:35.703Z,83.88
2019-05-23T05:18:35.746Z,83.58
2019-05-23T05:19:35.712Z,83.78
2019-05-23T05:20:35.699Z,83.58
2019-05-23T05:21:35.692Z,82.92
2019-05-23T05:22:35.744Z,83.13
2019-05-23T05:23:35.645Z,83.13
2019-05-23T05:24:39.993Z,82.92
2019-05-23T05:25:35.611Z,82.71
2019-05-23T05:26:35.635Z,82.71
2019-05-23T05:27:35.592Z,82.82
2019-05-23T05:28:35.652Z,82.27
2019-05-23T05:29:35.601Z,82.27
2019-05-23T05:30:35.656Z,82.48
2019-05-23T05:31:35.556Z,82.57
2019-05-23T05:32:44.881Z,81.04
2019-05-23T05:33:36.671Z,81.56
2019-05-23T05:34:35.549Z,81.65
2019-05-23T05:35:35.567Z,81.86
2019-05-23T05:36:35.509Z,81.31
2019-05-23T05:37:35.556Z,80.90
2019-05-23T05:38:35.481Z,81.01
2019-05-23T05:39:35.747Z,81.21
2019-05-23T05:40:35.742Z,80.90
2019-05-23T05:41:35.822Z,79.78
2019-05-23T05:42:35.508Z,79.98
2019-05-23T05:43:35.689Z,79.88
2019-05-23T05:44:35.431Z,80.25
2019-05-23T05:45:35.531Z,79.43
2019-05-23T05:46:35.503Z,79.84
2019-05-23T05:47:35.409Z,79.53
2019-05-23T05:48:35.490Z,79.84
2019-05-23T05:49:35.431Z,80.05
2019-05-23T05:50:35.649Z,79.84
2019-05-23T05:51:35.420Z,80.05
2019-05-23T05:52:35.358Z,80.01
2019-05-23T05:53:35.389Z,79.50
2019-05-23T05:54:35.299Z,79.39
2019-05-23T05:55:35.329Z,79.19
2019-05-23T05:56:35.303Z,79.25
2019-05-23T05:57:35.261Z,78.75
2019-05-23T05:58:35.270Z,78.95
2019-05-23T05:59:35.295Z,79.16
2019-05-23T06:00:35.235Z,79.25
2019-05-23T06:01:35.254Z,79.16
2019-05-23T06:02:35.211Z,79.25
2019-05-23T06:03:35.200Z,79.66
2019-05-23T06:04:35.200Z,79.97
2019-05-23T06:05:35.280Z,79.12
2019-05-23T06:06:35.184Z,78.91
2019-05-23T06:07:35.151Z,77.79
2019-05-23T06:08:35.157Z,78.09
2019-05-23T06:09:35.131Z,77.48
2019-05-23T06:10:35.124Z,77.18
2019-05-23T06:11:35.130Z,77.18
2019-05-23T06:12:35.090Z,77.28
2019-05-23T06:13:35.098Z,77.28
2019-05-23T06:14:35.080Z,76.77
2019-05-23T06:15:35.070Z,76.46
2019-05-23T06:16:35.083Z,76.56
2019-05-23T06:17:35.088Z,77.04
2019-05-23T06:18:35.049Z,77.14
2019-05-23T06:19:35.098Z,76.43
2019-05-23T06:20:35.045Z,76.84
2019-05-23T06:21:35.012Z,75.31
2019-05-23T06:22:35.019Z,76.02
2019-05-23T06:23:35.020Z,75.92
2019-05-23T06:24:45.222Z,76.73
2019-05-23T06:25:35.968Z,76.02
2019-05-23T06:26:34.939Z,76.53
2019-05-23T06:27:34.934Z,76.32
2019-05-23T06:28:34.954Z,76.02
2019-05-23T06:29:34.912Z,75.98
2019-05-23T06:30:34.907Z,74.66
2019-05-23T06:31:34.902Z,74.96
2019-05-23T06:32:34.928Z,75.57
2019-05-23T06:33:34.891Z,75.37
2019-05-23T06:34:34.879Z,75.48
2019-05-23T06:35:34.883Z,75.78
2019-05-23T06:36:34.834Z,75.27
2019-05-23T06:37:34.819Z,75.37
2019-05-23T06:38:34.852Z,74.52
2019-05-23T06:39:34.811Z,74.93
2019-05-23T06:40:34.861Z,75.03
2019-05-23T06:41:34.778Z,74.21
2019-05-23T06:42:34.775Z,74.42
2019-05-23T06:43:34.779Z,74.11
2019-05-23T06:44:34.793Z,74.42
2019-05-23T06:45:34.748Z,75.54
2019-05-23T06:46:34.731Z,75.44
2019-05-23T06:47:34.720Z,74.52
2019-05-23T06:48:34.724Z,73.19
2019-05-23T06:49:34.729Z,72.28
2019-05-23T06:50:34.688Z,72.69
2019-05-23T06:51:34.690Z,73.30
2019-05-23T06:52:34.695Z,73.06
2019-05-23T06:53:34.660Z,72.14
2019-05-23T06:54:34.858Z,72.75
2019-05-23T06:55:34.642Z,73.67
2019-05-23T06:56:34.619Z,72.45
2019-05-23T06:57:34.620Z,72.14
2019-05-23T06:58:34.599Z,72.04
2019-05-23T06:59:34.606Z,72.86
2019-05-23T07:00:34.610Z,72.31
2019-05-23T07:01:34.592Z,71.30
2019-05-23T07:02:34.559Z,71.39
2019-05-23T07:03:42.511Z,71.09
2019-05-23T07:04:35.553Z,71.39
2019-05-23T07:05:34.530Z,70.58
2019-05-23T07:06:34.560Z,71.09
2019-05-23T07:07:34.498Z,72.01
2019-05-23T07:08:34.628Z,72.41
2019-05-23T07:09:34.602Z,73.02
2019-05-23T07:10:34.505Z,71.87
2019-05-23T07:11:34.468Z,70.65
2019-05-23T07:12:34.480Z,70.55
2019-05-23T07:13:34.499Z,70.24
2019-05-23T07:14:34.409Z,71.16
2019-05-23T07:15:34.421Z,70.34
2019-05-23T07:16:34.398Z,69.49
2019-05-23T07:17:34.420Z,70.01
2019-05-23T07:18:34.406Z,70.92
2019-05-23T07:19:34.394Z,69.49
2019-05-23T07:20:34.354Z,67.87
2019-05-23T07:21:34.342Z,68.27
2019-05-23T07:22:34.364Z,68.18
2019-05-23T07:23:34.328Z,68.48
2019-05-23T07:24:34.315Z,68.79
2019-05-23T07:25:34.316Z,68.88
2019-05-23T07:26:34.295Z,69.09
2019-05-23T07:27:34.331Z,68.99
2019-05-23T07:28:34.278Z,69.09
2019-05-23T07:29:34.289Z,68.79
2019-05-23T07:30:34.321Z,68.58
2019-05-23T07:31:35.638Z,68.68
2019-05-23T07:32:34.223Z,68.99
2019-05-23T07:33:34.215Z,68.68
2019-05-23T07:34:34.257Z,69.26
2019-05-23T07:35:34.203Z,69.06
2019-05-23T07:36:34.234Z,69.16
2019-05-23T07:37:34.182Z,69.26
2019-05-23T07:38:34.167Z,68.11
2019-05-23T07:39:34.165Z,66.08
2019-05-23T07:40:34.290Z,66.11
2019-05-23T07:41:34.273Z,65.91
2019-05-23T07:42:34.372Z,66.31
2019-05-23T07:43:34.126Z,67.43
2019-05-23T07:44:47.491Z,68.04
2019-05-23T07:45:35.077Z,68.44
2019-05-23T07:46:34.125Z,67.53
2019-05-23T07:47:34.180Z,67.10
2019-05-23T07:48:34.123Z,64.35
2019-05-23T07:49:34.168Z,63.23
2019-05-23T07:50:34.195Z,64.55
2019-05-23T07:51:34.047Z,65.67
2019-05-23T07:52:34.008Z,62.93
2019-05-23T07:53:33.988Z,63.33
2019-05-23T07:54:33.979Z,62.52
2019-05-23T07:55:33.994Z,61.83
2019-05-23T07:56:34.038Z,61.94
2019-05-23T07:57:33.959Z,63.39
2019-05-23T07:58:33.968Z,63.90
2019-05-23T07:59:33.958Z,63.39
2019-05-23T08:00:33.937Z,60.61
2019-05-23T08:01:33.948Z,62.85
2019-05-23T08:02:33.900Z,63.26
2019-05-23T08:03:33.881Z,62.24
2019-05-23T08:04:33.939Z,57.97
2019-05-23T08:05:33.981Z,58.89
2019-05-23T08:06:33.876Z,58.07
2019-05-23T08:07:33.846Z,57.67
2019-05-23T08:08:33.851Z,59.60
2019-05-23T08:09:33.843Z,59.50
2019-05-23T08:10:34.532Z,58.96
2019-05-23T08:11:33.811Z,58.65
2019-05-23T08:12:33.800Z,59.16
2019-05-23T08:13:33.764Z,59.03
2019-05-23T08:14:33.796Z,59.34
2019-05-23T08:15:33.745Z,60.13
2019-05-23T08:16:33.749Z,59.82
2019-05-23T08:17:33.721Z,59.48
2019-05-23T08:18:33.798Z,59.59
2019-05-23T08:19:48.540Z,59.56
2019-05-23T08:20:34.686Z,59.26
2019-05-23T08:21:33.698Z,59.05
2019-05-23T08:22:33.697Z,59.26
2019-05-23T08:23:33.661Z,58.14
2019-05-23T08:24:33.708Z,58.01
2019-05-23T08:25:33.738Z,58.01
2019-05-23T08:26:33.859Z,58.52
2019-05-23T08:27:34.298Z,57.28
2019-05-23T08:28:33.614Z,56.87
2019-05-23T08:29:33.621Z,56.99
2019-05-23T08:30:33.608Z,56.57
2019-05-23T08:31:33.618Z,56.36
2019-05-23T08:32:33.578Z,55.85
2019-05-23T08:33:33.552Z,56.57
2019-05-23T08:34:41.673Z,55.65
2019-05-23T08:35:34.541Z,55.96
2019-05-23T08:36:33.631Z,54.66
2019-05-23T08:37:33.509Z,55.78
2019-05-23T08:38:33.499Z,54.36
2019-05-23T08:39:33.512Z,54.77
2019-05-23T08:40:33.498Z,55.58
2019-05-23T08:41:33.539Z,55.47
2019-05-23T08:42:33.557Z,55.98
2019-05-23T08:43:33.439Z,56.29
2019-05-23T08:44:33.420Z,55.71
2019-05-23T08:45:33.471Z,55.91
2019-05-23T08:46:33.458Z,55.50
2019-05-23T08:47:33.459Z,56.52
2019-05-23T08:48:33.388Z,56.82
2019-05-23T08:49:33.447Z,57.43
2019-05-23T08:50:33.357Z,56.52
2019-05-23T08:51:33.399Z,56.41
2019-05-23T08:52:33.400Z,56.21
2019-05-23T08:53:33.591Z,55.20
2019-05-23T08:54:33.382Z,56.49
2019-05-23T08:55:33.339Z,55.68
2019-05-23T08:56:33.318Z,55.65
2019-05-23T08:57:34.875Z,55.85
2019-05-23T08:58:33.294Z,54.61
2019-05-23T08:59:33.261Z,54.28
2019-05-23T09:00:33.267Z,54.79
2019-05-23T09:01:33.254Z,53.65
2019-05-23T09:02:33.300Z,53.25
2019-05-23T09:03:33.259Z,53.42
2019-05-23T09:04:33.242Z,52.72
2019-05-23T09:05:33.198Z,52.81
2019-05-23T09:06:33.270Z,53.60
2019-05-23T09:07:33.185Z,53.80
2019-05-23T09:08:33.180Z,52.46
2019-05-23T09:09:33.187Z,50.95
2019-05-23T09:10:33.226Z,52.06
2019-05-23T09:11:33.141Z,51.76
2019-05-23T09:12:33.119Z,53.07
2019-05-23T09:13:33.127Z,53.17
2019-05-23T09:14:33.112Z,51.86
2019-05-23T09:15:33.081Z,53.38
2019-05-23T09:16:33.355Z,52.08
2019-05-23T09:17:49.728Z,53.09
2019-05-23T09:18:34.110Z,54.13
2019-05-23T09:19:33.061Z,55.17
2019-05-23T09:20:33.022Z,55.10
2019-05-23T09:21:33.107Z,55.43
2019-05-23T09:22:33.006Z,55.45
2019-05-23T09:23:33.024Z,55.78
2019-05-23T09:24:33.001Z,56.31
2019-05-23T09:25:32.982Z,56.62
2019-05-23T09:26:32.989Z,57.35
2019-05-23T09:27:34.750Z,56.54
2019-05-23T09:28:33.030Z,57.86
2019-05-23T09:29:33.030Z,58.06
2019-05-23T09:30:32.923Z,58.45
2019-05-23T09:31:32.928Z,59.16
2019-05-23T09:32:32.926Z,56.79
2019-05-23T09:33:32.881Z,56.18
2019-05-23T09:34:32.907Z,56.18
2019-05-23T09:35:32.869Z,55.76
2019-05-23T09:36:32.901Z,55.25
2019-05-23T09:37:32.841Z,54.31
2019-05-23T09:38:32.861Z,54.31
2019-05-23T09:39:32.854Z,54.18
2019-05-23T09:40:32.820Z,52.56
2019-05-23T09:41:32.926Z,53.27
2019-05-23T09:42:32.887Z,53.34
2019-05-23T09:43:32.793Z,54.16
2019-05-23T09:44:32.814Z,54.03
2019-05-23T09:45:32.769Z,54.82
2019-05-23T09:46:32.753Z,54.11
2019-05-23T09:47:32.735Z,53.27
2019-05-23T09:48:32.813Z,54.08
2019-05-23T09:49:32.816Z,53.34
2019-05-23T09:50:32.725Z,51.23
2019-05-23T09:51:32.692Z,52.16
2019-05-23T09:52:32.704Z,51.35
2019-05-23T09:53:32.690Z,52.21
2019-05-23T09:54:32.674Z,53.55
2019-05-23T09:55:32.674Z,54.38
2019-05-23T09:56:32.671Z,54.08
2019-05-23T09:57:32.649Z,54.79
2019-05-23T09:58:32.656Z,54.41
2019-05-23T09:59:32.600Z,54.41
2019-05-23T10:00:32.611Z,54.84
2019-05-23T10:01:32.598Z,54.74
2019-05-23T10:02:32.565Z,54.86
2019-05-23T10:03:32.672Z,55.68
2019-05-23T10:04:32.639Z,55.07
2019-05-23T10:05:42.940Z,55.58
2019-05-23T10:06:33.525Z,55.58
2019-05-23T10:07:32.517Z,55.98
2019-05-23T10:08:32.514Z,55.58
2019-05-23T10:09:32.543Z,55.78
2019-05-23T10:10:32.502Z,55.58
2019-05-23T10:11:32.473Z,55.15
2019-05-23T10:12:32.533Z,54.74
2019-05-23T10:13:38.920Z,55.25
2019-05-23T10:14:33.472Z,54.33
2019-05-23T10:15:32.531Z,54.94
2019-05-23T10:16:32.460Z,53.63
2019-05-23T10:17:32.418Z,54.11
2019-05-23T10:18:32.442Z,54.21
2019-05-23T10:19:32.485Z,54.51
2019-05-23T10:20:32.377Z,55.10
2019-05-23T10:21:32.518Z,55.40
2019-05-23T10:22:32.345Z,54.38
2019-05-23T10:23:32.430Z,53.58
2019-05-23T10:24:32.363Z,53.34
2019-05-23T10:25:32.343Z,52.74
2019-05-23T10:26:32.310Z,52.94
2019-05-23T10:27:32.294Z,52.44
2019-05-23T10:28:32.292Z,52.21
2019-05-23T10:29:32.318Z,51.50
2019-05-23T10:30:33.067Z,52.11
2019-05-23T10:31:32.284Z,51.60
2019-05-23T10:32:32.284Z,51.81
2019-05-23T10:33:32.227Z,50.99
2019-05-23T10:34:32.235Z,51.40
2019-05-23T10:35:32.245Z,52.11
2019-05-23T10:36:32.194Z,50.99
2019-05-23T10:37:32.235Z,51.42
2019-05-23T10:38:32.174Z,51.02
2019-05-23T10:39:32.173Z,51.62
2019-05-23T10:40:32.182Z,51.53
2019-05-23T10:41:32.144Z,51.73
2019-05-23T10:42:32.128Z,50.71
2019-05-23T10:43:32.156Z,51.83
2019-05-23T10:44:32.104Z,51.09
2019-05-23T10:45:32.136Z,51.30
2019-05-23T10:46:32.117Z,51.57
2019-05-23T10:47:32.165Z,52.08
2019-05-23T10:48:32.065Z,51.48
2019-05-23T10:49:32.055Z,51.76
2019-05-23T10:50:44.185Z,51.86
2019-05-23T10:51:33.091Z,50.24
2019-05-23T10:52:32.019Z,49.84
2019-05-23T10:53:32.042Z,50.34
2019-05-23T10:54:32.043Z,49.93
2019-05-23T10:55:32.024Z,49.41
2019-05-23T10:56:32.014Z,48.70
2019-05-23T10:57:31.992Z,49.21
2019-05-23T10:58:31.988Z,49.02
2019-05-23T10:59:31.949Z,49.13
2019-05-23T11:01:24.722Z,49.51
2019-05-23T11:02:27.021Z,48.90
2019-05-23T11:03:24.657Z,49.21
2019-05-23T11:04:24.647Z,49.41
2019-05-23T11:05:24.626Z,48.60
2019-05-23T11:06:24.658Z,49.13
2019-05-23T11:07:24.629Z,49.43
2019-05-23T11:08:28.753Z,49.45
2019-05-23T11:09:37.366Z,49.66
2019-05-23T11:10:25.580Z,49.66
2019-05-23T11:11:24.633Z,49.66
2019-05-23T11:12:24.565Z,49.05
2019-05-23T11:13:24.571Z,48.97
2019-05-23T11:14:24.550Z,49.17
2019-05-23T11:15:24.538Z,50.09
2019-05-23T11:16:24.547Z,50.38
2019-05-23T11:17:24.516Z,49.58
2019-05-23T11:18:24.544Z,51.30
2019-05-23T11:19:24.583Z,50.59
2019-05-23T11:20:24.495Z,50.29
2019-05-23T11:21:24.514Z,49.25
2019-05-23T11:22:24.858Z,48.74
2019-05-23T11:23:24.445Z,50.87
2019-05-23T11:24:24.463Z,50.37
2019-05-23T11:25:24.454Z,50.34
2019-05-23T11:26:24.517Z,49.22
2019-05-23T11:27:25.355Z,49.13
2019-05-23T11:28:24.502Z,47.89
2019-05-23T11:29:27.270Z,48.39
2019-05-23T11:30:24.370Z,47.59
2019-05-23T11:31:24.360Z,48.10
2019-05-23T11:32:24.362Z,48.50
2019-05-23T11:33:24.367Z,47.87
2019-05-23T11:34:24.325Z,48.07
2019-05-23T11:35:24.308Z,47.24
2019-05-23T11:36:34.821Z,46.64
2019-05-23T11:37:25.337Z,46.94
2019-05-23T11:38:24.306Z,45.83
2019-05-23T11:39:24.265Z,45.95
2019-05-23T11:40:24.251Z,46.76
2019-05-23T11:41:24.244Z,47.56
2019-05-23T11:42:24.286Z,47.06
2019-05-23T11:43:24.238Z,46.36
2019-05-23T11:44:24.234Z,46.76
2019-05-23T11:45:24.200Z,46.56
2019-05-23T11:46:24.181Z,46.58
2019-05-23T11:47:24.252Z,47.39
2019-05-23T11:48:24.207Z,46.88
2019-05-23T11:49:24.148Z,47.79
2019-05-23T11:50:24.140Z,47.39
2019-05-23T11:51:25.441Z,46.58
2019-05-23T11:52:24.120Z,46.37
2019-05-23T11:53:24.145Z,46.78
2019-05-23T11:54:24.119Z,46.48
2019-05-23T11:55:24.088Z,46.78
2019-05-23T11:56:24.081Z,46.37
2019-05-23T11:57:24.072Z,46.88
2019-05-23T11:58:24.084Z,46.98
2019-05-23T11:59:24.053Z,46.17
2019-05-23T12:00:24.039Z,46.68
2019-05-23T12:01:24.069Z,47.16
2019-05-23T12:02:24.014Z,46.25
2019-05-23T12:03:24.045Z,46.25
2019-05-23T12:04:24.024Z,45.93
2019-05-23T12:05:24.035Z,46.64
2019-05-23T12:06:26.120Z,46.13
2019-05-23T12:07:23.984Z,46.01
2019-05-23T12:08:23.993Z,46.51
2019-05-23T12:09:23.950Z,45.50
2019-05-23T12:10:23.914Z,45.10
2019-05-23T12:11:23.910Z,45.61
2019-05-23T12:12:23.902Z,44.79
2019-05-23T12:13:23.947Z,45.81
2019-05-23T12:14:23.900Z,45.53
2019-05-23T12:15:23.880Z,45.62
2019-05-23T12:16:23.860Z,45.22
2019-05-23T12:17:23.844Z,45.54
2019-05-23T12:18:23.894Z,45.54
2019-05-23T12:19:23.975Z,46.05
2019-05-23T12:20:23.817Z,45.53
2019-05-23T12:21:23.803Z,45.53
2019-05-23T12:22:23.812Z,45.62
2019-05-23T12:23:23.792Z,46.11
2019-05-23T12:24:23.789Z,45.81
2019-05-23T12:25:23.851Z,47.22
2019-05-23T12:26:23.751Z,47.32
2019-05-23T12:27:23.731Z,47.22
2019-05-23T12:28:23.958Z,46.81
2019-05-23T12:29:23.741Z,47.19
2019-05-23T12:30:23.712Z,46.89
2019-05-23T12:31:23.772Z,48.10
2019-05-23T12:32:23.741Z,48.10
2019-05-23T12:33:23.674Z,47.98
2019-05-23T12:34:23.661Z,48.89
2019-05-23T12:35:23.671Z,48.49
2019-05-23T12:36:23.642Z,47.78
2019-05-23T12:37:23.629Z,47.88
2019-05-23T12:38:23.614Z,46.09
2019-05-23T12:39:23.690Z,46.79
2019-05-23T12:40:23.601Z,47.60
2019-05-23T12:41:23.581Z,47.80
2019-05-23T12:42:23.561Z,47.50
2019-05-23T12:43:23.570Z,48.08
2019-05-23T12:44:23.543Z,47.78
2019-05-23T12:45:23.573Z,47.88
2019-05-23T12:46:23.612Z,47.98
2019-05-23T12:47:23.516Z,47.98
2019-05-23T12:48:23.492Z,48.58
2019-05-23T12:49:23.491Z,47.98
2019-05-23T12:50:23.511Z,47.58
2019-05-23T12:51:23.516Z,47.07
2019-05-23T12:52:23.478Z,44.55
2019-05-23T12:53:23.486Z,45.18